Time;durP1;ratioP1;P1;durP2;ratioP2;P2;SDS_P1;SDS_P2;PMS_P1;PMS_P2;Temp;Humidity;BMP_temperature;BMP_pressure;BME280_temperature;BME280_humidity;BME280_pressure;Samples;Min_cycle;Max_cycle;Signal;HPM_P1;HPM_P2
2022/05/26 00:02:26;;;;;;;11.07;5.80;;;14.50;99.90;;;;;;5022305;28;20298;-52
2022/05/26 00:04:53;;;;;;;8.53;5.77;;;14.50;99.90;;;;;;5023373;28;20273;-51
2022/05/26 00:07:19;;;;;;;9.80;5.97;;;14.50;99.90;;;;;;5022915;28;20453;-51
2022/05/26 00:09:46;;;;;;;11.87;6.30;;;14.60;99.90;;;;;;5028912;28;20229;-52
2022/05/26 00:12:14;;;;;;;9.13;5.70;;;14.60;99.90;;;;;;5023475;28;20685;-51
2022/05/26 00:14:41;;;;;;;8.57;5.67;;;14.60;99.90;;;;;;5026724;28;20550;-50
2022/05/26 00:17:08;;;;;;;7.50;5.67;;;14.60;99.90;;;;;;5026375;28;20669;-51
2022/05/26 00:19:35;;;;;;;9.20;6.50;;;14.50;99.90;;;;;;5012008;28;20244;-51
2022/05/26 00:22:02;;;;;;;8.50;5.83;;;14.60;99.90;;;;;;5022267;28;20279;-50
2022/05/26 00:24:29;;;;;;;8.73;5.77;;;14.60;99.90;;;;;;5024305;28;20329;-50
2022/05/26 00:26:55;;;;;;;10.13;6.53;;;14.60;99.90;;;;;;5027526;28;20586;-50
2022/05/26 00:29:22;;;;;;;11.27;6.30;;;14.60;99.90;;;;;;5010176;28;20236;-52
2022/05/26 00:31:49;;;;;;;11.00;6.03;;;14.60;99.90;;;;;;5029506;28;20279;-50
2022/05/26 00:34:16;;;;;;;11.33;6.57;;;14.60;99.90;;;;;;5029432;28;20201;-51
2022/05/26 00:36:43;;;;;;;7.87;6.10;;;14.60;99.90;;;;;;5021429;28;20648;-51
2022/05/26 00:39:16;;;;;;;8.93;6.93;;;14.60;99.90;;;;;;5018428;28;20199;-51
2022/05/26 00:41:49;;;;;;;9.90;6.07;;;14.60;99.90;;;;;;5012745;28;20932;-51
2022/05/26 00:44:16;;;;;;;10.43;6.70;;;14.60;99.90;;;;;;5019008;28;21031;-50
2022/05/26 00:47:02;;;;;;;10.87;6.30;;;14.60;99.90;;;;;;5024619;28;20272;-51
2022/05/26 00:50:00;;;;;;;12.53;6.40;;;14.70;99.90;;;;;;5020180;28;20207;-51
2022/05/26 00:52:35;;;;;;;13.43;7.43;;;14.70;99.90;;;;;;5017787;28;20288;-51
2022/05/26 00:55:08;;;;;;;10.07;5.93;;;14.70;99.90;;;;;;5013563;28;20287;-52
2022/05/26 00:57:41;;;;;;;12.53;6.47;;;14.70;99.90;;;;;;5025225;28;20224;-52
2022/05/26 01:00:12;;;;;;;14.17;6.60;;;14.70;99.90;;;;;;5020030;28;20237;-51
2022/05/26 01:02:45;;;;;;;11.13;7.10;;;14.80;99.90;;;;;;5019139;28;20202;-51
2022/05/26 01:05:28;;;;;;;13.97;9.13;;;14.80;99.90;;;;;;5023540;28;20252;-51
2022/05/26 01:07:57;;;;;;;10.50;6.90;;;14.80;99.90;;;;;;5025175;28;20190;-52
2022/05/26 01:10:24;;;;;;;13.13;7.57;;;14.80;99.90;;;;;;5017833;28;20237;-50
2022/05/26 01:12:52;;;;;;;15.27;7.40;;;14.70;99.90;;;;;;5023014;28;20205;-52
2022/05/26 01:15:22;;;;;;;15.20;7.30;;;14.70;99.90;;;;;;5028314;28;20707;-52
2022/05/26 01:18:05;;;;;;;10.40;7.77;;;14.70;99.90;;;;;;5027929;28;20255;-52
2022/05/26 01:20:55;;;;;;;16.63;7.87;;;14.70;99.90;;;;;;5024382;28;20604;-52
2022/05/26 01:23:28;;;;;;;11.60;6.97;;;14.70;99.90;;;;;;5022611;28;20698;-53
2022/05/26 01:26:28;;;;;;;13.83;7.40;;;14.70;99.90;;;;;;5026513;28;20201;-52
2022/05/26 01:29:04;;;;;;;14.27;8.30;;;14.80;99.90;;;;;;5026521;28;20545;-51
2022/05/26 01:31:52;;;;;;;15.10;8.13;;;14.70;99.90;;;;;;5022389;28;20200;-52
2022/05/26 01:34:39;;;;;;;12.53;7.00;;;14.80;99.90;;;;;;5025918;28;20203;-51
2022/05/26 01:37:25;;;;;;;11.57;7.33;;;14.80;99.90;;;;;;5022857;28;20209;-52
2022/05/26 01:40:10;;;;;;;15.67;8.47;;;14.80;99.90;;;;;;5020333;28;20280;-52
2022/05/26 01:42:59;;;;;;;13.43;8.67;;;14.70;99.90;;;;;;5026895;28;20295;-53
2022/05/26 01:45:48;;;;;;;20.40;8.27;;;14.80;99.90;;;;;;5023355;28;20283;-52
2022/05/26 01:48:45;;;;;;;12.60;8.03;;;14.80;99.90;;;;;;5031655;28;20196;-54
2022/05/26 01:51:44;;;;;;;13.30;8.10;;;14.80;99.90;;;;;;5023456;28;20284;-52
2022/05/26 01:54:44;;;;;;;18.67;8.60;;;14.80;99.90;;;;;;5027142;28;20727;-52
2022/05/26 01:57:30;;;;;;;14.63;7.80;;;14.80;99.90;;;;;;5031778;28;20619;-51
2022/05/26 02:00:06;;;;;;;13.73;7.70;;;14.90;99.90;;;;;;5020492;28;20204;-52
2022/05/26 02:02:38;;;;;;;17.43;9.00;;;14.80;99.90;;;;;;5023685;28;20190;-51
2022/05/26 02:05:14;;;;;;;15.60;8.20;;;14.80;99.90;;;;;;5027371;28;20238;-52
2022/05/26 02:07:46;;;;;;;15.47;8.70;;;14.80;99.90;;;;;;5026070;28;20200;-51
2022/05/26 02:10:35;;;;;;;19.53;7.90;;;14.90;99.90;;;;;;5025840;28;20690;-52
2022/05/26 02:13:07;;;;;;;19.83;9.00;;;14.80;99.90;;;;;;5023787;28;20233;-52
2022/05/26 02:15:50;;;;;;;14.47;7.67;;;14.80;99.90;;;;;;5025028;28;20233;-51
2022/05/26 02:18:26;;;;;;;14.23;8.70;;;14.80;99.90;;;;;;5022034;28;20214;-50
2022/05/26 02:20:56;;;;;;;18.37;8.13;;;14.80;99.90;;;;;;5021550;28;20611;-53
2022/05/26 02:23:44;;;;;;;15.53;8.40;;;14.80;99.90;;;;;;5027114;28;20257;-51
2022/05/26 02:26:13;;;;;;;19.13;8.20;;;14.90;99.90;;;;;;5022105;28;20448;-56
2022/05/26 02:31:28;;;;;;;15.47;7.10;;;14.70;99.90;;;;;;5019700;28;20297;-53
2022/05/26 02:34:00;;;;;;;21.30;7.97;;;14.70;99.90;;;;;;5025760;28;20271;-51
2022/05/26 02:36:34;;;;;;;14.70;7.10;;;14.70;99.90;;;;;;5026643;28;20796;-51
2022/05/26 02:39:00;;;;;;;15.70;7.73;;;14.70;99.90;;;;;;5025921;28;20715;-52
2022/05/26 02:41:29;;;;;;;13.80;7.93;;;14.60;99.90;;;;;;5027147;28;20227;-52
2022/05/26 02:43:56;;;;;;;15.87;7.87;;;14.70;99.90;;;;;;5021714;28;20294;-51
2022/05/26 02:46:39;;;;;;;14.73;7.27;;;14.60;99.90;;;;;;5025249;28;20309;-52
2022/05/26 02:49:34;;;;;;;19.77;6.57;;;14.50;99.90;;;;;;5023758;28;20198;-52
2022/05/26 02:52:11;;;;;;;20.43;7.57;;;14.50;99.90;;;;;;5017050;28;20265;-51
2022/05/26 02:54:41;;;;;;;16.60;6.90;;;14.50;99.90;;;;;;5025514;28;20666;-51
2022/05/26 02:57:18;;;;;;;16.80;6.87;;;14.60;99.90;;;;;;5019741;28;20933;-51
2022/05/26 03:00:13;;;;;;;16.23;7.10;;;14.60;99.90;;;;;;5026882;28;20653;-52
2022/05/26 03:03:15;;;;;;;17.17;6.13;;;14.60;99.90;;;;;;5025413;28;20263;-52
2022/05/26 03:05:57;;;;;;;13.00;6.20;;;14.50;99.90;;;;;;5023965;28;20657;-52
2022/05/26 03:08:27;;;;;;;18.97;6.67;;;14.50;99.90;;;;;;5029055;28;20322;-51
2022/05/26 03:11:04;;;;;;;13.87;6.30;;;14.40;99.90;;;;;;5016671;28;20225;-52
2022/05/26 03:13:30;;;;;;;22.40;7.30;;;14.50;99.90;;;;;;5027189;28;20202;-50
2022/05/26 03:15:57;;;;;;;14.63;6.50;;;14.50;99.90;;;;;;5032271;28;20294;-52
2022/05/26 03:18:24;;;;;;;18.90;6.70;;;14.40;99.90;;;;;;5021795;28;20324;-50
2022/05/26 03:20:51;;;;;;;13.97;6.00;;;14.40;99.90;;;;;;5027728;28;20319;-51
2022/05/26 03:23:17;;;;;;;16.97;7.10;;;14.40;99.90;;;;;;5025242;28;20257;-50
2022/05/26 03:25:47;;;;;;;12.23;5.90;;;14.30;99.90;;;;;;5020972;28;20287;-51
2022/05/26 03:28:14;;;;;;;16.50;6.27;;;14.30;99.90;;;;;;5020441;28;20245;-50
2022/05/26 03:30:41;;;;;;;23.23;7.60;;;14.40;99.90;;;;;;5016726;28;20240;-50
2022/05/26 03:33:08;;;;;;;18.97;6.67;;;14.30;99.90;;;;;;5032710;28;20318;-51
2022/05/26 03:41:06;;;;;;;21.07;6.97;;;14.40;99.90;;;;;;5023245;28;20322;-51
2022/05/26 03:43:39;;;;;;;20.40;6.43;;;14.40;99.90;;;;;;5022417;28;20214;-53
2022/05/26 03:46:06;;;;;;;16.03;6.93;;;14.40;99.90;;;;;;5019046;28;20240;-51
2022/05/26 03:48:33;;;;;;;18.27;6.37;;;14.40;99.90;;;;;;5028237;28;20649;-51
2022/05/26 03:51:00;;;;;;;18.73;6.27;;;14.30;99.90;;;;;;5023086;28;20235;-51
2022/05/26 03:53:26;;;;;;;19.83;6.63;;;14.40;99.90;;;;;;5026371;28;20231;-52
2022/05/26 03:55:54;;;;;;;15.93;5.80;;;14.40;99.90;;;;;;5020312;28;20282;-51
2022/05/26 03:58:21;;;;;;;19.33;6.43;;;14.30;99.90;;;;;;5021351;28;20236;-52
2022/05/26 04:00:48;;;;;;;19.33;6.17;;;14.30;99.90;;;;;;5024000;28;20705;-49
2022/05/26 04:03:15;;;;;;;16.23;5.30;;;14.30;99.90;;;;;;5019550;28;20251;-51
2022/05/26 04:05:42;;;;;;;20.20;6.00;;;14.20;99.90;;;;;;5024639;28;20281;-52
2022/05/26 04:08:08;;;;;;;19.53;5.73;;;14.20;99.90;;;;;;5025025;28;20246;-51
2022/05/26 04:10:35;;;;;;;19.53;6.03;;;14.20;99.90;;;;;;5032076;28;20309;-52
2022/05/26 04:13:03;;;;;;;17.57;5.23;;;14.30;99.90;;;;;;5029421;28;20208;-51
2022/05/26 04:15:30;;;;;;;14.50;5.13;;;14.40;99.90;;;;;;5036580;28;20207;-51
2022/05/26 04:17:57;;;;;;;17.80;5.77;;;14.30;99.90;;;;;;5030374;28;20869;-50
2022/05/26 04:20:24;;;;;;;16.27;5.00;;;14.20;99.90;;;;;;5021797;28;20221;-51
2022/05/26 04:22:50;;;;;;;18.00;5.20;;;14.30;99.90;;;;;;5027538;28;20223;-51
2022/05/26 04:25:20;;;;;;;18.97;4.77;;;14.20;99.90;;;;;;5030380;28;20214;-52
2022/05/26 04:27:47;;;;;;;16.03;4.90;;;14.20;99.90;;;;;;5025257;28;20296;-51
2022/05/26 04:30:14;;;;;;;17.70;5.13;;;14.20;99.90;;;;;;5026690;28;20302;-52
2022/05/26 04:32:41;;;;;;;17.60;4.47;;;14.20;99.90;;;;;;5026929;28;21938;-52
2022/05/26 04:35:09;;;;;;;11.37;4.50;;;14.20;99.90;;;;;;5028431;28;20608;-53
2022/05/26 04:37:36;;;;;;;26.37;5.43;;;14.20;99.90;;;;;;5031248;28;20948;-48
2022/05/26 04:40:04;;;;;;;13.70;4.77;;;14.20;99.90;;;;;;5029343;28;20287;-51
2022/05/26 04:42:31;;;;;;;20.13;4.70;;;14.20;99.90;;;;;;5027661;28;20265;-51
2022/05/26 04:44:59;;;;;;;13.23;4.37;;;14.30;99.90;;;;;;5028547;28;20295;-52
2022/05/26 04:47:26;;;;;;;17.70;4.80;;;14.30;99.90;;;;;;5027892;28;20686;-52
2022/05/26 04:49:53;;;;;;;23.20;4.43;;;14.30;99.90;;;;;;5029124;28;20261;-51
2022/05/26 04:52:23;;;;;;;18.93;4.50;;;14.30;99.90;;;;;;5025427;28;20215;-51
2022/05/26 04:54:52;;;;;;;14.70;5.07;;;14.30;99.90;;;;;;5024682;28;20241;-52
2022/05/26 04:57:23;;;;;;;17.07;4.60;;;14.30;99.90;;;;;;5025443;28;20215;-51
2022/05/26 04:59:50;;;;;;;14.60;4.80;;;14.40;99.90;;;;;;5030221;28;20226;-52
2022/05/26 05:02:20;;;;;;;14.37;4.77;;;14.40;99.90;;;;;;5026965;28;21291;-52
2022/05/26 05:04:48;;;;;;;15.63;4.40;;;14.40;99.90;;;;;;5031424;28;20255;-51
2022/05/26 05:07:17;;;;;;;19.87;5.50;;;14.40;99.90;;;;;;5031013;28;20350;-51
2022/05/26 05:09:46;;;;;;;18.47;5.97;;;14.40;99.90;;;;;;5024391;28;20233;-51
2022/05/26 05:12:17;;;;;;;15.73;4.47;;;14.50;99.90;;;;;;5024013;28;20686;-52
2022/05/26 05:14:49;;;;;;;20.70;5.23;;;14.50;99.90;;;;;;5027701;28;20240;-52
2022/05/26 05:17:17;;;;;;;15.33;4.40;;;14.40;99.90;;;;;;5025943;28;20247;-52
2022/05/26 05:19:45;;;;;;;18.47;5.00;;;14.50;99.90;;;;;;5027044;28;20641;-52
2022/05/26 05:22:42;;;;;;;15.83;3.90;;;14.50;99.90;;;;;;5023120;28;20595;-52
2022/05/26 05:25:20;;;;;;;15.33;5.27;;;14.50;99.90;;;;;;5026812;28;20579;-51
2022/05/26 05:27:53;;;;;;;16.47;4.33;;;14.60;99.90;;;;;;5024714;28;20288;-51
2022/05/26 05:30:24;;;;;;;15.70;4.33;;;14.60;99.90;;;;;;5023727;28;20340;-50
2022/05/26 05:33:05;;;;;;;14.93;4.53;;;14.60;99.90;;;;;;5029030;28;20286;-51
2022/05/26 05:35:42;;;;;;;14.87;4.67;;;14.60;99.90;;;;;;5032012;28;20215;-50
2022/05/26 05:38:09;;;;;;;13.80;4.10;;;14.70;99.90;;;;;;5032949;28;20273;-49
2022/05/26 05:40:36;;;;;;;10.83;4.20;;;14.70;99.90;;;;;;5029216;28;20293;-50
2022/05/26 05:43:04;;;;;;;17.43;4.57;;;14.70;99.90;;;;;;5022237;28;20678;-50
2022/05/26 05:45:31;;;;;;;16.43;4.40;;;14.70;99.90;;;;;;5031072;28;20209;-51
2022/05/26 05:47:58;;;;;;;16.43;4.77;;;14.60;99.90;;;;;;5031102;28;20205;-50
2022/05/26 05:50:25;;;;;;;15.13;5.83;;;14.70;99.90;;;;;;5024482;28;20224;-51
2022/05/26 05:52:52;;;;;;;14.97;4.17;;;14.70;99.90;;;;;;5024932;28;20274;-52
2022/05/26 05:55:19;;;;;;;14.77;3.83;;;14.70;99.90;;;;;;5029151;28;20253;-51
2022/05/26 05:57:46;;;;;;;16.53;3.93;;;14.90;99.90;;;;;;5025519;28;20320;-51
2022/05/26 06:00:13;;;;;;;16.23;4.87;;;15.00;99.90;;;;;;5016694;28;20239;-52
2022/05/26 06:02:40;;;;;;;18.93;4.37;;;14.90;99.90;;;;;;5023007;28;20204;-50
2022/05/26 06:05:07;;;;;;;15.00;4.10;;;14.90;99.90;;;;;;5016768;28;20222;-55
2022/05/26 06:07:37;;;;;;;11.17;4.17;;;15.00;99.90;;;;;;5020482;28;20619;-51
2022/05/26 06:10:05;;;;;;;12.90;4.17;;;15.00;99.90;;;;;;5022581;28;20333;-52
2022/05/26 06:12:32;;;;;;;15.43;4.63;;;15.10;99.90;;;;;;5022952;28;20280;-52
2022/05/26 06:14:58;;;;;;;17.83;4.60;;;15.20;99.90;;;;;;5020640;28;20558;-52
2022/05/26 06:17:25;;;;;;;17.40;4.27;;;15.20;99.90;;;;;;5020622;28;20305;-53
2022/05/26 06:19:52;;;;;;;17.70;5.17;;;15.30;99.90;;;;;;5025008;28;20718;-51
2022/05/26 06:22:21;;;;;;;15.70;4.07;;;15.30;99.90;;;;;;5021847;28;20236;-52
2022/05/26 06:24:49;;;;;;;11.50;4.67;;;15.40;99.90;;;;;;5020868;28;20286;-51
2022/05/26 06:30:07;;;;;;;9.37;3.90;;;15.60;99.90;;;;;;5020899;28;20844;-49
2022/05/26 06:38:14;;;;;;;14.13;4.20;;;15.70;99.90;;;;;;5019336;28;20309;-50
2022/05/26 06:40:41;;;;;;;13.70;5.17;;;15.70;99.90;;;;;;5016936;28;20802;-53
2022/05/26 06:43:08;;;;;;;17.53;5.23;;;15.50;99.90;;;;;;5022962;28;20281;-50
2022/05/26 06:45:36;;;;;;;13.23;4.80;;;15.60;99.90;;;;;;5024781;28;20207;-52
2022/05/26 06:48:04;;;;;;;8.63;4.13;;;15.90;99.90;;;;;;5023518;28;20250;-51
2022/05/26 06:50:30;;;;;;;16.23;5.20;;;15.80;99.90;;;;;;5018430;28;20237;-52
2022/05/26 06:52:57;;;;;;;14.93;4.53;;;15.70;99.90;;;;;;5021295;28;20289;-52
2022/05/26 06:55:24;;;;;;;13.80;4.60;;;16.10;99.90;;;;;;5008965;28;20206;-52
2022/05/26 06:57:51;;;;;;;14.40;5.13;;;16.10;99.90;;;;;;5011653;28;20348;-53
2022/05/26 07:00:18;;;;;;;7.20;4.23;;;16.10;99.90;;;;;;5014829;28;20743;-53
2022/05/26 07:02:46;;;;;;;15.20;4.97;;;16.30;99.90;;;;;;5015759;28;20287;-53
2022/05/26 07:05:13;;;;;;;17.37;5.93;;;16.30;99.90;;;;;;5016280;28;20290;-52
2022/05/26 07:07:41;;;;;;;12.70;4.37;;;16.50;99.90;;;;;;5024470;28;20296;-52
2022/05/26 07:10:13;;;;;;;9.97;4.13;;;16.30;99.90;;;;;;5014982;28;20239;-52
2022/05/26 07:12:40;;;;;;;13.97;4.33;;;16.40;99.90;;;;;;5019949;28;20235;-52
2022/05/26 07:15:09;;;;;;;16.77;4.60;;;16.60;99.90;;;;;;5019108;28;20210;-54
2022/05/26 07:17:41;;;;;;;10.40;3.40;;;16.60;99.90;;;;;;5022572;28;20664;-59
2022/05/26 07:20:09;;;;;;;10.40;4.60;;;16.70;99.90;;;;;;5017562;28;20658;-51
2022/05/26 07:22:36;;;;;;;12.13;4.97;;;16.90;99.90;;;;;;5015104;28;20696;-52
2022/05/26 07:25:04;;;;;;;10.00;4.13;;;16.80;99.90;;;;;;5011200;28;20701;-53
2022/05/26 07:27:32;;;;;;;12.07;3.93;;;17.00;99.90;;;;;;5015492;28;20670;-52
2022/05/26 07:29:59;;;;;;;13.97;4.27;;;16.90;99.90;;;;;;5018345;28;20305;-53
2022/05/26 07:32:25;;;;;;;11.37;4.00;;;16.70;99.90;;;;;;5011457;28;20712;-51
2022/05/26 07:34:52;;;;;;;10.63;3.60;;;16.70;99.90;;;;;;5013153;28;20613;-54
2022/05/26 07:42:51;;;;;;;12.03;4.00;;;16.60;99.90;;;;;;5013724;28;20282;-52
2022/05/26 07:45:19;;;;;;;8.03;3.30;;;16.50;99.90;;;;;;5013588;28;20797;-50
2022/05/26 07:47:47;;;;;;;11.20;3.87;;;16.80;99.90;;;;;;5014074;28;20210;-53
2022/05/26 07:50:19;;;;;;;9.03;3.13;;;16.90;99.90;;;;;;5014678;28;20219;-52
2022/05/26 07:52:50;;;;;;;5.60;2.60;;;16.80;99.90;;;;;;5014476;28;20211;-52
2022/05/26 07:55:18;;;;;;;6.47;3.20;;;16.70;99.90;;;;;;5016042;28;20296;-52
2022/05/26 07:57:46;;;;;;;8.00;3.10;;;16.80;99.90;;;;;;5013559;28;20219;-52
2022/05/26 08:00:15;;;;;;;9.93;3.57;;;16.80;99.90;;;;;;5019317;28;20397;-52
2022/05/26 08:02:42;;;;;;;8.83;3.40;;;16.80;99.90;;;;;;5021010;28;20560;-52
2022/05/26 08:05:10;;;;;;;8.00;3.73;;;17.10;99.90;;;;;;5015341;28;20211;-53
2022/05/26 08:07:37;;;;;;;6.90;3.30;;;17.00;99.90;;;;;;5017069;28;20197;-52
2022/05/26 08:10:05;;;;;;;10.87;3.33;;;17.00;99.90;;;;;;5011346;28;20231;-52
2022/05/26 08:12:31;;;;;;;8.50;2.80;;;17.50;99.90;;;;;;5017025;28;20253;-53
2022/05/26 08:14:58;;;;;;;12.03;5.23;;;17.90;99.90;;;;;;5022295;28;20304;-53
2022/05/26 08:17:25;;;;;;;8.33;3.50;;;17.40;99.90;;;;;;5023993;28;20838;-52
2022/05/26 08:19:52;;;;;;;12.20;3.43;;;17.10;99.90;;;;;;5023865;28;21978;-52
2022/05/26 08:22:20;;;;;;;8.27;2.60;;;17.40;99.90;;;;;;5021537;28;20286;-53
2022/05/26 08:24:56;;;;;;;7.00;3.73;;;17.70;99.90;;;;;;5020718;28;20633;-53
2022/05/26 08:27:23;;;;;;;4.80;3.10;;;17.80;99.90;;;;;;5019316;28;20653;-54
2022/05/26 08:29:54;;;;;;;8.57;3.40;;;17.30;99.90;;;;;;5021914;28;20232;-52
2022/05/26 08:32:23;;;;;;;7.60;3.40;;;17.30;99.90;;;;;;5019531;28;20243;-52
2022/05/26 08:34:50;;;;;;;9.17;3.27;;;17.70;99.90;;;;;;5013632;28;20570;-52
2022/05/26 08:37:19;;;;;;;12.60;3.30;;;18.20;99.90;;;;;;5006564;28;20231;-53
2022/05/26 08:39:47;;;;;;;8.40;3.00;;;18.10;99.90;;;;;;5019549;28;20238;-52
2022/05/26 08:42:24;;;;;;;8.17;2.97;;;17.80;99.90;;;;;;5011150;28;20764;-52
2022/05/26 08:44:55;;;;;;;6.33;2.20;;;18.10;99.90;;;;;;5016115;28;20348;-53
2022/05/26 08:47:27;;;;;;;4.43;2.67;;;18.20;99.90;;;;;;5021444;28;20236;-53
2022/05/26 08:50:01;;;;;;;6.87;2.20;;;18.30;99.90;;;;;;5018736;28;20930;-52
2022/05/26 08:52:32;;;;;;;9.33;2.47;;;18.70;99.90;;;;;;5011247;28;20300;-53
2022/05/26 08:55:11;;;;;;;6.63;2.83;;;18.60;99.90;;;;;;5017721;28;20201;-53
2022/05/26 08:57:45;;;;;;;8.63;2.63;;;18.40;99.90;;;;;;5013854;28;20299;-52
2022/05/26 09:00:17;;;;;;;6.00;2.90;;;17.80;99.90;;;;;;5019699;28;20296;-52
2022/05/26 09:02:44;;;;;;;4.57;1.90;;;17.80;99.90;;;;;;5013877;28;20208;-53
2022/05/26 09:05:16;;;;;;;5.77;2.17;;;18.40;99.90;;;;;;5014589;28;20724;-54
2022/05/26 09:13:58;;;;;;;6.73;2.13;;;18.50;99.90;;;;;;5017480;28;20245;-53
2022/05/26 09:16:28;;;;;;;5.73;2.10;;;18.20;99.90;;;;;;5020306;28;21458;-52
2022/05/26 09:19:18;;;;;;;4.77;1.90;;;17.90;99.90;;;;;;5023153;28;20865;-53
2022/05/26 09:21:47;;;;;;;6.10;2.03;;;18.20;99.90;;;;;;5023550;28;20231;-53
2022/05/26 09:24:19;;;;;;;6.30;2.67;;;18.80;99.90;;;;;;5027790;28;20222;-52
2022/05/26 09:27:16;;;;;;;6.07;2.07;;;18.60;99.90;;;;;;5026857;28;20236;-51
2022/05/26 09:29:43;;;;;;;2.80;1.73;;;18.30;99.90;;;;;;5018661;28;20260;-53
2022/05/26 09:32:16;;;;;;;5.07;2.13;;;18.40;99.90;;;;;;5028393;28;20377;-52
2022/05/26 09:35:14;;;;;;;7.50;2.30;;;18.20;99.90;;;;;;5025254;28;20215;-52
2022/05/26 09:37:45;;;;;;;6.43;1.73;;;17.90;99.90;;;;;;5026179;28;20289;-52
2022/05/26 09:40:18;;;;;;;7.60;2.27;;;18.20;99.90;;;;;;5022664;28;20232;-53
2022/05/26 09:42:51;;;;;;;2.43;1.47;;;18.80;99.90;;;;;;5023918;28;20199;-52
2022/05/26 09:45:19;;;;;;;6.80;1.90;;;19.10;99.90;;;;;;5026141;28;20198;-52
2022/05/26 09:47:58;;;;;;;4.33;1.70;;;18.80;99.90;;;;;;5027575;28;20199;-51
2022/05/26 09:50:34;;;;;;;4.30;1.73;;;18.40;99.90;;;;;;5026068;28;20568;-54
2022/05/26 09:53:03;;;;;;;5.03;1.33;;;18.30;99.90;;;;;;5026904;28;20678;-56
2022/05/26 09:55:44;;;;;;;4.57;1.40;;;18.30;99.90;;;;;;5024295;28;20567;-52
2022/05/26 09:58:28;;;;;;;3.40;1.30;;;18.20;99.90;;;;;;5022332;28;20631;-53
2022/05/26 10:01:05;;;;;;;3.63;1.27;;;18.60;99.90;;;;;;5021777;28;20263;-54
2022/05/26 10:03:52;;;;;;;6.30;1.60;;;18.90;99.90;;;;;;5015728;28;20275;-52
2022/05/26 10:06:35;;;;;;;8.17;1.47;;;18.80;99.90;;;;;;5015720;28;20231;-54
2022/05/26 10:09:14;;;;;;;3.63;1.10;;;18.60;99.90;;;;;;5008863;28;20732;-53
2022/05/26 10:11:53;;;;;;;3.63;1.60;;;18.70;99.90;;;;;;5012254;28;20641;-57
2022/05/26 10:14:32;;;;;;;3.63;1.40;;;18.90;99.90;;;;;;5018885;28;20233;-53
2022/05/26 10:17:28;;;;;;;3.93;1.47;;;18.70;99.90;;;;;;5015512;28;21031;-53
2022/05/26 10:20:32;;;;;;;4.33;1.87;;;18.50;99.90;;;;;;5012979;28;20972;-53
2022/05/26 10:23:19;;;;;;;2.83;1.30;;;18.50;99.90;;;;;;5012053;28;20234;-53
2022/05/26 10:25:54;;;;;;;5.30;1.30;;;18.80;99.90;;;;;;5020064;28;20618;-53
2022/05/26 10:28:50;;;;;;;6.83;1.43;;;19.00;99.90;;;;;;5012683;28;20294;-53
2022/05/26 10:31:37;;;;;;;7.43;1.50;;;19.00;99.90;;;;;;5013241;28;20212;-53
2022/05/26 10:34:29;;;;;;;2.23;0.90;;;19.10;99.90;;;;;;5018838;28;20202;-53
2022/05/26 10:37:25;;;;;;;5.27;1.27;;;19.40;99.90;;;;;;5027256;28;20200;-53
2022/05/26 10:40:10;;;;;;;2.70;1.10;;;19.80;99.90;;;;;;5017169;28;20302;-53
2022/05/26 10:42:54;;;;;;;4.93;0.97;;;19.40;99.90;;;;;;5026202;28;20610;-52
2022/05/26 10:45:33;;;;;;;2.27;0.90;;;19.20;99.90;;;;;;5022913;28;20219;-54
2022/05/26 10:48:07;;;;;;;5.27;1.30;;;19.30;99.90;;;;;;5027592;28;20270;-53
2022/05/26 10:50:42;;;;;;;1.83;1.00;;;19.00;99.90;;;;;;5033715;28;20240;-53
2022/05/26 10:53:49;;;;;;;3.17;1.10;;;19.20;99.90;;;;;;5026906;28;20286;-52
2022/05/26 10:56:36;;;;;;;3.60;1.00;;;19.60;99.90;;;;;;5021856;28;20755;-53
2022/05/26 10:59:27;;;;;;;2.43;1.10;;;19.60;46.40;;;;;;5024581;28;20710;-53
2022/05/26 11:02:19;;;;;;;5.30;1.20;;;19.30;98.60;;;;;;5024466;28;20771;-53
2022/05/26 11:05:09;;;;;;;1.67;0.90;;;19.50;99.90;;;;;;5015363;28;20250;-54
2022/05/26 11:07:45;;;;;;;2.53;0.83;;;19.80;52.70;;;;;;5018631;28;20199;-53
2022/05/26 11:10:22;;;;;;;2.60;0.90;;;19.60;69.20;;;;;;5021734;28;20228;-50
2022/05/26 11:13:16;;;;;;;2.33;0.93;;;19.70;58.60;;;;;;5023370;28;20222;-50
2022/05/26 11:18:48;;;;;;;3.93;0.80;;;19.50;22.30;;;;;;5013735;28;20212;-52
2022/05/26 11:21:19;;;;;;;4.90;1.00;;;19.70;56.90;;;;;;5019944;28;20254;-51
2022/05/26 11:23:46;;;;;;;5.37;1.20;;;20.10;14.00;;;;;;5013312;28;20214;-57
2022/05/26 11:26:23;;;;;;;3.50;1.20;;;19.90;92.30;;;;;;5011149;28;20299;-55
2022/05/26 11:28:59;;;;;;;4.70;1.10;;;19.30;90.70;;;;;;5012575;28;20289;-53
2022/05/26 11:37:25;;;;;;;3.43;1.70;;;20.00;87.80;;;;;;5017402;28;20840;-52
2022/05/26 11:39:59;;;;;;;6.10;1.50;;;20.00;99.90;;;;;;5015632;28;20252;-53
2022/05/26 11:42:26;;;;;;;4.73;1.70;;;20.30;77.00;;;;;;5009593;28;20706;-52
2022/05/26 11:45:24;;;;;;;4.13;1.50;;;20.50;56.50;;;;;;5009738;28;20211;-54
2022/05/26 11:48:03;;;;;;;7.97;1.83;;;20.40;47.60;;;;;;5017730;28;20248;-53
2022/05/26 11:50:54;;;;;;;5.57;1.60;;;20.40;17.90;;;;;;5016343;28;20210;-53
2022/05/26 11:53:44;;;;;;;3.93;1.80;;;20.60;9.70;;;;;;5015834;28;20195;-53
2022/05/26 11:56:28;;;;;;;5.50;2.27;;;20.60;78.30;;;;;;5008587;28;20231;-53
2022/05/26 11:59:42;;;;;;;3.90;1.97;;;20.70;15.30;;;;;;5012935;28;20311;-54
2022/05/26 12:02:26;;;;;;;5.60;2.30;;;20.50;27.50;;;;;;5018734;28;20345;-57
2022/05/26 12:04:52;;;;;;;4.57;2.50;;;20.30;29.20;;;;;;5014242;28;20204;-54
2022/05/26 12:07:22;;;;;;;9.93;2.77;;;20.60;63.30;;;;;;5010566;28;20227;-55
2022/05/26 12:09:51;;;;;;;4.23;2.43;;;20.70;29.50;;;;;;5015170;28;20308;-56
2022/05/26 12:12:17;;;;;;;8.33;3.20;;;20.90;10.30;;;;;;5008685;28;20772;-56
2022/05/26 12:15:06;;;;;;;6.97;3.13;;;20.80;35.50;;;;;;5013010;28;20270;-55
2022/05/26 12:17:48;;;;;;;8.30;3.30;;;21.00;37.00;;;;;;5012583;28;20230;-58
2022/05/26 12:20:15;;;;;;;5.53;2.70;;;20.60;8.90;;;;;;5009573;28;20632;-55
2022/05/26 12:22:54;;;;;;;6.40;2.90;;;20.50;37.30;;;;;;5012057;28;20310;-55
2022/05/26 12:25:23;;;;;;;6.00;2.70;;;20.80;35.60;;;;;;5005510;28;20802;-55
2022/05/26 12:27:56;;;;;;;9.40;3.30;;;21.10;17.90;;;;;;5011937;28;20217;-54
2022/05/26 12:30:46;;;;;;;5.63;3.53;;;21.10;12.30;;;;;;5016951;28;20928;-55
2022/05/26 12:33:27;;;;;;;8.37;3.90;;;20.80;10.50;;;;;;5017552;28;20219;-55
2022/05/26 12:36:11;;;;;;;6.93;4.13;;;20.40;10.40;;;;;;5013633;28;20708;-56
2022/05/26 12:38:51;;;;;;;7.07;3.90;;;20.50;12.00;;;;;;5014595;28;20315;-55
2022/05/26 12:41:18;;;;;;;3.90;3.37;;;20.90;20.70;;;;;;5016208;28;20224;-55
2022/05/26 12:44:01;;;;;;;8.63;3.93;;;20.70;19.80;;;;;;5021115;28;20897;-55
2022/05/26 12:46:50;;;;;;;6.50;3.57;;;20.50;10.60;;;;;;5023924;28;20303;-56
2022/05/26 12:49:29;;;;;;;8.53;3.43;;;20.40;13.30;;;;;;5019604;28;20357;-54
2022/05/26 12:52:23;;;;;;;6.33;3.60;;;20.70;46.10;;;;;;5022702;28;20656;-55
2022/05/26 12:55:05;;;;;;;8.27;4.40;;;21.00;36.70;;;;;;5018154;28;20637;-55
2022/05/26 12:57:36;;;;;;;7.77;4.73;;;21.00;13.50;;;;;;5010820;28;20274;-54
2022/05/26 13:00:32;;;;;;;5.10;3.70;;;20.70;5.90;;;;;;5018950;28;20228;-54
2022/05/26 13:03:13;;;;;;;6.37;3.90;;;21.10;1.20;;;;;;5022677;28;20266;-56
2022/05/26 13:05:51;;;;;;;4.73;3.73;;;21.30;5.20;;;;;;5016146;28;20635;-55
2022/05/26 13:08:21;;;;;;;6.27;4.20;;;21.50;1.00;;;;;;5015855;28;20322;-56
2022/05/26 13:10:53;;;;;;;6.97;4.20;;;21.10;1.00;;;;;;5017396;28;20328;-55
2022/05/26 13:13:24;;;;;;;6.53;4.20;;;21.10;8.10;;;;;;5016941;28;20286;-55
2022/05/26 13:15:50;;;;;;;6.93;4.13;;;21.00;1.00;;;;;;5009927;28;21241;-55
2022/05/26 13:18:25;;;;;;;7.60;3.43;;;20.60;9.10;;;;;;5013346;28;20220;-55
2022/05/26 13:20:52;;;;;;;10.23;4.70;;;21.00;66.70;;;;;;5020694;28;20243;-55
2022/05/26 13:23:30;;;;;;;6.57;4.50;;;21.10;4.90;;;;;;5014485;28;21206;-55
2022/05/26 13:26:01;;;;;;;5.00;3.90;;;20.60;17.00;;;;;;5012857;28;20474;-54
2022/05/26 13:28:31;;;;;;;6.83;3.97;;;20.50;14.10;;;;;;5017078;28;20215;-54
2022/05/26 13:34:07;;;;;;;5.78;4.20;;;20.50;91.30;;;;;;5021513;28;20449;-53
2022/05/26 13:36:43;;;;;;;8.57;4.63;;;20.20;41.40;;;;;;5020898;28;20278;-53
2022/05/26 13:39:14;;;;;;;9.50;4.93;;;19.90;63.80;;;;;;5015880;28;20251;-54
2022/05/26 13:41:44;;;;;;;8.50;4.10;;;19.70;83.30;;;;;;5016721;28;20299;-54
2022/05/26 13:44:17;;;;;;;8.07;4.07;;;20.00;75.70;;;;;;5020438;28;20253;-53
2022/05/26 13:46:49;;;;;;;8.70;3.83;;;20.10;49.20;;;;;;5014282;28;20700;-53
2022/05/26 13:49:39;;;;;;;5.13;4.10;;;20.20;96.40;;;;;;5017008;28;20272;-54
2022/05/26 13:52:25;;;;;;;5.83;3.60;;;20.00;96.10;;;;;;5012669;28;20613;-54
2022/05/26 13:54:55;;;;;;;5.90;3.53;;;19.90;85.30;;;;;;5017196;28;20233;-56
2022/05/26 13:57:30;;;;;;;8.70;3.97;;;20.00;99.90;;;;;;5012408;28;20204;-53
2022/05/26 14:00:07;;;;;;;7.63;3.40;;;19.80;82.20;;;;;;5015624;28;20328;-54